Buoy 51940

sailwx.info

Track history (hours):
 
Tides and Currents Weather Stations Pressure Air Temp Water Temp Dewpoint Dewpoint Depression Visibility Wind Speed Wind Dir Waves Ship Positions

Drifting buoy 51940

Last reported at 2015-Jan-27 16:24 UTC. Time now 2015-Jan-27 18:57 UTC.
Position N 33°05' W 164°20'.

Water temperature 15.6 ° C

Date/timePositionNaut miles runAvg speedWind from/ knotsBaromVisibWave heightAir tempDewpointWater temp
2015-Jan-27 16:24N 33°05' W 164°20'0 1.4 15.6
2015-Jan-27 16:13N 33°05' W 164°21'0 1.4 15.6
2015-Jan-27 16:00N 33°05' W 164°21'1 0.4 15.5
2015-Jan-27 14:23N 33°06' W 164°22'1 8.5 15.5
2015-Jan-27 14:17N 33°06' W 164°23'0 0.0 15.6
2015-Jan-27 12:43N 33°06' W 164°23'215.2 15.6
2015-Jan-27 12:37N 33°06' W 164°25'0 0.0 15.6
2015-Jan-27 09:19N 33°06' W 164°24'0 0.3 15.6
2015-Jan-27 08:34N 33°06' W 164°25'1 0.8 15.6
2015-Jan-27 07:38N 33°06' W 164°26'1 0.3 15.6
2015-Jan-27 05:11N 33°06' W 164°26'1 0.7 15.5
2015-Jan-27 03:52N 33°06' W 164°27'0 0.6 15.5
2015-Jan-27 03:33N 33°06' W 164°27'2 1.2 15.5
2015-Jan-27 01:48N 33°07' W 164°30'0 0.0 15.5
2015-Jan-27 00:19N 33°07' W 164°30'0 0.0 15.5
2015-Jan-27 00:16N 33°07' W 164°30'2 0.6 15.5
2015-Jan-26 21:17N 33°07' W 164°32'1 1.2 15.5
2015-Jan-26 20:25N 33°07' W 164°33'2 0.7 15.5
2015-Jan-26 16:52N 33°06' W 164°36'1 5.3 15.5
2015-Jan-26 16:35N 33°05' W 164°37'0 0.0 15.5
2015-Jan-26 16:04N 33°05' W 164°37'0 0.0 15.5
2015-Jan-26 15:14N 33°05' W 164°37'1 0.6 15.5
2015-Jan-26 12:56N 33°04' W 164°38'215.7 15.5
2015-Jan-26 12:49N 33°03' W 164°39'0 0.0 15.5
2015-Jan-26 09:39N 33°03' W 164°39'0 0.0 15.4
2015-Jan-26 08:51N 33°03' W 164°39'0 0.1 15.5
2015-Jan-26 07:58N 33°03' W 164°39'1 0.3 15.5
2015-Jan-26 06:19N 33°03' W 164°40'0 0.2 15.5
2015-Jan-26 04:16N 33°03' W 164°40'0 1.1 15.4
2015-Jan-26 04:00N 33°03' W 164°41'0 0.0 15.4
2015-Jan-26 03:42N 33°03' W 164°41'1 0.6 15.4
2015-Jan-26 02:32N 33°02' W 164°41'0 0.0
2015-Jan-26 02:08N 33°02' W 164°41'115.3 15.3
2015-Jan-26 02:04N 33°02' W 164°43'0 0.0 15.3
2015-Jan-26 00:26N 33°02' W 164°43'1 0.4 15.3
2015-Jan-25 21:37N 33°01' W 164°44'0 0.2 15.3
2015-Jan-25 20:47N 33°01' W 164°44'1 0.4 15.2
2015-Jan-25 17:26N 33°00' W 164°45'1 1.4 15.1
2015-Jan-25 16:56N 32°60' W 164°45'0 0.0 15.1
2015-Jan-25 16:19N 32°60' W 164°45'114.9 15.1
2015-Jan-25 16:14N 32°59' W 164°47'1 1.7 15.1
2015-Jan-25 15:45N 32°59' W 164°46'0 0.2 15.1
2015-Jan-25 14:45N 32°59' W 164°46'1 7.2 15.1
2015-Jan-25 14:40N 32°59' W 164°47'0 0.0 15.1
2015-Jan-25 14:37N 32°59' W 164°47'0 0.0 15.1
2015-Jan-25 13:08N 32°59' W 164°47'1 3.8 15.1
2015-Jan-25 13:00N 32°59' W 164°46'0 0.0 15.1
2015-Jan-25 08:25N 32°59' W 164°46'0 0.5 15.1
2015-Jan-25 08:19N 32°59' W 164°46'0 0.1 15.1
2015-Jan-25 07:35N 32°59' W 164°47'0 0.3 15.1
2015-Jan-25 06:43N 32°59' W 164°47'0 0.7 15.1
2015-Jan-25 06:14N 32°59' W 164°46'1 0.9 15.1
2015-Jan-25 04:40N 33°01' W 164°47'0 3.2 15.2
2015-Jan-25 04:34N 33°00' W 164°47'0 0.5 15.2
2015-Jan-25 03:55N 33°01' W 164°47'1 5.7 15.3
2015-Jan-25 03:47N 33°01' W 164°47'0 0.0 15.3
2015-Jan-25 03:01N 33°01' W 164°47'0 0.2 15.3
2015-Jan-25 02:18N 33°01' W 164°48'114.4 15.4
2015-Jan-25 02:12N 33°02' W 164°49'0 0.0 15.4
2015-Jan-25 00:41N 33°02' W 164°49'0 0.0 15.4
2015-Jan-25 00:38N 33°02' W 164°49'1 0.2 15.4
2015-Jan-24 21:59N 33°02' W 164°49'0 0.1 15.5
2015-Jan-24 21:09N 33°02' W 164°49'1 0.6 15.5
2015-Jan-24 20:11N 33°03' W 164°50'0 0.0 15.5
2015-Jan-24 19:21N 33°03' W 164°50'0 0.0 15.5
2015-Jan-24 17:56N 33°03' W 164°50'0 0.8 15.5
2015-Jan-24 17:28N 33°03' W 164°50'0 0.0 15.5
2015-Jan-24 16:32N 33°03' W 164°50'0 5.8 15.6
2015-Jan-24 16:27N 33°04' W 164°50'0 3.6 15.6
2015-Jan-24 16:19N 33°03' W 164°50'0 0.9 15.6
2015-Jan-24 15:47N 33°04' W 164°50'0 0.0 15.6
2015-Jan-24 14:51N 33°04' W 164°50'1 0.6 15.7
2015-Jan-24 13:19N 33°05' W 164°50'322.7 15.7
2015-Jan-24 13:11N 33°07' W 164°52'0 0.0 15.7
2015-Jan-24 13:08N 33°07' W 164°52'0 0.0 15.7
2015-Jan-24 08:44N 33°07' W 164°52'0 3.2 15.8
2015-Jan-24 08:41N 33°07' W 164°52'1 1.4 15.8
2015-Jan-24 07:56N 33°08' W 164°53'1 1.2 15.8
2015-Jan-24 07:03N 33°08' W 164°54'3 1.3 15.8
2015-Jan-24 05:04N 33°10' W 164°56'0 0.0 15.8
2015-Jan-24 04:07N 33°10' W 164°56'0 1.5 15.8
2015-Jan-24 04:03N 33°10' W 164°56'113.1 15.8
2015-Jan-24 04:00N 33°10' W 164°57'2 2.9 15.8
2015-Jan-24 03:24N 33°11' W 164°59'0 0.0 15.7
2015-Jan-24 02:27N 33°11' W 164°59'1 9.2 15.7
2015-Jan-24 02:21N 33°11' W 164°60'0 0.0 15.7
2015-Jan-24 00:49N 33°11' W 164°60'1 8.9 15.7
2015-Jan-24 00:44N 33°12' W 165°00'0 0.0 15.7
2015-Jan-23 23:11N 33°12' W 165°00'216.6 15.5
2015-Jan-23 23:05N 33°12' W 165°02'0 0.0 15.5
2015-Jan-23 21:25N 33°12' W 165°02'0 0.0 15.2
2015-Jan-23 20:39N 33°12' W 165°02'0 0.3 15.3
2015-Jan-23 19:47N 33°12' W 165°02'1 0.4 15.4
2015-Jan-23 16:48N 33°13' W 165°02'0 2.3 15.6
2015-Jan-23 16:44N 33°13' W 165°03'1 9.6 15.6
2015-Jan-23 16:38N 33°14' W 165°03'0 0.0 15.6
2015-Jan-23 16:05N 33°14' W 165°03'0 0.0 15.6
2015-Jan-23 15:03N 33°14' W 165°03'120.8 15.6
2015-Jan-23 15:00N 33°15' W 165°03'0 0.0 15.6
2015-Jan-23 13:30N 33°15' W 165°03'436.7 15.7
2015-Jan-23 13:23N 33°18' W 165°06'0 0.0 15.7
2015-Jan-23 09:04N 33°18' W 165°06'120.4 15.8
2015-Jan-23 09:01N 33°18' W 165°07'0 0.2 15.7
2015-Jan-23 08:16N 33°18' W 165°07'1 1.0 15.8
2015-Jan-23 07:26N 33°18' W 165°08'215.6 15.8
2015-Jan-23 07:20N 33°19' W 165°10'0 0.0 15.8
2015-Jan-23 05:34N 33°19' W 165°10'2 1.8 15.9
2015-Jan-23 04:13N 33°19' W 165°13'0 0.0 16.0
2015-Jan-23 03:54N 33°19' W 165°13'0 0.0 16.0
2015-Jan-23 02:33N 33°19' W 165°13'1 0.8 16.0
2015-Jan-23 01:03N 33°19' W 165°14'0 1.0 16.0
2015-Jan-23 01:00N 33°19' W 165°14'3 1.6 16.0
2015-Jan-22 23:17N 33°18' W 165°17'0 0.0 16.1
2015-Jan-22 21:48N 33°18' W 165°17'2 2.0 16.0
2015-Jan-22 20:58N 33°18' W 165°19'0 0.0 16.1
2015-Jan-22 20:52N 33°18' W 165°19'0 0.0 16.1
2015-Jan-22 20:07N 33°18' W 165°19'2 0.7 16.1
2015-Jan-22 17:18N 33°18' W 165°22'0 0.0 16.2
2015-Jan-22 16:56N 33°18' W 165°22'212.9 16.2
2015-Jan-22 16:48N 33°17' W 165°24'0 0.0 16.2
2015-Jan-22 16:28N 33°17' W 165°24'0 0.0 16.2
2015-Jan-22 15:16N 33°17' W 165°24'0 0.0 16.2
2015-Jan-22 13:40N 33°17' W 165°24'869.1 16.0
2015-Jan-22 13:33N 33°20' W 165°33'0 0.0 15.9
2015-Jan-22 09:26N 33°20' W 165°33'0 0.0 15.9
2015-Jan-22 08:35N 33°20' W 165°33'0 0.0 15.9
2015-Jan-22 07:46N 33°20' W 165°33'224.8 15.9
2015-Jan-22 07:41N 33°21' W 165°35'0 0.0 15.9
2015-Jan-22 06:09N 33°21' W 165°35'2 0.9 16.0
2015-Jan-22 04:28N 33°21' W 165°37'1 5.5 16.0
2015-Jan-22 04:19N 33°21' W 165°38'1 0.7 16.0
2015-Jan-22 02:45N 33°21' W 165°39'4 2.6 16.0
2015-Jan-22 01:14N 33°18' W 165°42'0 0.0 16.3
2015-Jan-21 23:33N 33°18' W 165°42'0 0.0 16.5
2015-Jan-21 21:19N 33°18' W 165°42'0 4.0 16.5
2015-Jan-21 21:12N 33°17' W 165°42'0 0.0
2015-Jan-21 20:30N 33°17' W 165°42'1 0.5 16.5
2015-Jan-21 17:51N 33°17' W 165°44'0 0.4 16.5
2015-Jan-21 17:05N 33°17' W 165°44'1 1.3 16.5
2015-Jan-21 16:12N 33°17' W 165°46'0 0.5 16.5
2015-Jan-21 15:27N 33°17' W 165°46'6 3.5 16.5
2015-Jan-21 13:44N 33°17' W 165°53'0 0.0 16.4
2015-Jan-21 12:03N 33°17' W 165°53'6 0.8 16.5
2015-Jan-21 05:00N 33°14' W 165°59'3 6.7 16.4
2015-Jan-21 04:37N 33°12' W 166°01'0 0.0 16.4
2015-Jan-21 03:01N 33°12' W 166°01'0 2.4 16.4
2015-Jan-21 02:58N 33°12' W 166°01'3 1.9 16.4
2015-Jan-21 01:26N 33°09' W 166°03'1 0.7 16.3
2015-Jan-20 23:44N 33°09' W 166°04'0 0.0 16.3
2015-Jan-20 21:43N 33°09' W 166°04'0 0.4 16.2
2015-Jan-20 20:48N 33°08' W 166°04'4 1.2 16.1
2015-Jan-20 17:26N 33°07' W 166°09'1 3.4 16.3
2015-Jan-20 17:13N 33°07' W 166°10'0 0.0 16.3
2015-Jan-20 15:37N 33°07' W 166°10'1 0.7 16.2
2015-Jan-20 14:03N 33°07' W 166°11'2 1.2 15.9
2015-Jan-20 12:18N 33°07' W 166°13'445.8 15.7
2015-Jan-20 12:13N 33°07' W 166°18'0 0.0 15.7
2015-Jan-20 10:07N 33°07' W 166°18'0 0.0 15.8
2015-Jan-20 08:27N 33°07' W 166°18'0 2.3 15.9
2015-Jan-20 08:24N 33°07' W 166°18'0 0.4 15.9
2015-Jan-20 07:35N 33°08' W 166°18'1 1.1 15.9
2015-Jan-20 06:49N 33°08' W 166°19'2 1.8 15.9
2015-Jan-20 05:30N 33°08' W 166°22'0 1.0 15.9
2015-Jan-20 05:07N 33°08' W 166°22'2 0.9 15.9
2015-Jan-20 03:10N 33°07' W 166°24'1 0.6 15.9
2015-Jan-20 01:32N 33°07' W 166°25'2 1.3 15.9
2015-Jan-19 23:56N 33°07' W 166°27'0 0.1 15.9
2015-Jan-19 21:10N 33°06' W 166°28'2 1.2 15.9
2015-Jan-19 19:29N 33°08' W 166°29'0 0.2 15.9
2015-Jan-19 17:11N 33°07' W 166°30'0 0.0 15.9
2015-Jan-19 15:48N 33°07' W 166°30'1 8.3 15.9
2015-Jan-19 15:41N 33°08' W 166°31'1 6.4
2015-Jan-19 15:32N 33°07' W 166°30'1 0.8 15.9
2015-Jan-19 14:15N 33°08' W 166°31'211.2 15.9
2015-Jan-19 14:06N 33°08' W 166°33'0 0.0 15.9
2015-Jan-19 12:33N 33°08' W 166°33'2 0.6 15.9
2015-Jan-19 08:48N 33°08' W 166°35'0 0.0 15.8
2015-Jan-19 08:44N 33°08' W 166°35'1 1.5 15.8
2015-Jan-19 08:01N 33°07' W 166°36'0 0.0 15.8
2015-Jan-19 07:58N 33°07' W 166°36'0 0.5 15.8
2015-Jan-19 07:07N 33°07' W 166°37'0 5.6 15.7
2015-Jan-19 07:02N 33°07' W 166°37'0 0.3 15.7
2015-Jan-19 05:31N 33°06' W 166°38'0 0.0 15.7
2015-Jan-19 04:18N 33°06' W 166°38'0 0.6 15.6
2015-Jan-19 03:48N 33°06' W 166°37'1 1.7 15.6
2015-Jan-19 03:19N 33°06' W 166°38'0 0.0 15.6
2015-Jan-19 01:44N 33°06' W 166°38'1 0.4 15.4
2015-Jan-19 00:03N 33°06' W 166°39'2 0.7 15.4
2015-Jan-18 21:32N 33°05' W 166°40'1 0.4 15.5
2015-Jan-18 19:48N 33°04' W 166°41'1 0.4 15.7
2015-Jan-18 17:44N 33°04' W 166°41'0 0.2 15.7
2015-Jan-18 16:37N 33°03' W 166°42'0 1.6 15.7
2015-Jan-18 16:29N 33°03' W 166°42'0 0.9 15.7
2015-Jan-18 16:06N 33°03' W 166°41'010.5 15.7
2015-Jan-18 16:04N 33°03' W 166°42'1 0.4 15.7
2015-Jan-18 14:26N 33°04' W 166°42'1 9.6 15.7
2015-Jan-18 14:18N 33°05' W 166°43'0 0.0 15.7
2015-Jan-18 12:43N 33°05' W 166°43'323.4 15.8
2015-Jan-18 12:35N 33°07' W 166°46'0 0.0 15.8
2015-Jan-18 09:08N 33°07' W 166°46'0 4.2 15.8
2015-Jan-18 09:05N 33°07' W 166°46'1 1.6 15.8
2015-Jan-18 08:19N 33°07' W 166°48'0 0.0 15.8
2015-Jan-18 07:29N 33°07' W 166°48'321.7 15.9
2015-Jan-18 07:21N 33°06' W 166°51'2 1.9
2015-Jan-18 06:33N 33°06' W 166°49'2 0.9 16.0
2015-Jan-18 04:49N 33°06' W 166°51'2 3.1 16.0
2015-Jan-18 04:13N 33°05' W 166°53'0 0.1 16.0
2015-Jan-18 03:34N 33°05' W 166°53'015.1
2015-Jan-18 03:33N 33°05' W 166°53'3 1.6 16.2
2015-Jan-18 01:59N 33°04' W 166°56'213.3 16.5
2015-Jan-18 01:52N 33°03' W 166°57'0 0.0 7.5 16.5
2015-Jan-18 00:17N 33°03' W 166°57'0 0.0 16.7
2015-Jan-18 00:16N 33°03' W 166°57'2 0.9 16.7
2015-Jan-17 21:50N 33°01' W 166°59'0 0.0 16.8
2015-Jan-17 21:03N 33°01' W 166°59'2 2.3 16.8
2015-Jan-17 20:08N 33°00' W 167°01'0 0.0 16.8
2015-Jan-17 18:11N 33°00' W 167°01'   16.8
Track history (hours):
 
Tides and Currents Weather Stations Pressure Air Temp Water Temp Dewpoint Dewpoint Depression Visibility Wind Speed Wind Dir Waves Ship Positions

Drifting buoy 51940

Last reported at 2015-Jan-27 16:24 UTC. Time now 2015-Jan-27 18:57 UTC.
Position N 33°05' W 164°20'.

Water temperature 15.6 ° C

Date/timePositionNaut miles runAvg speedWind from/ knotsBaromVisibWave heightAir tempDewpointWater temp
2015-Jan-27 16:24N 33°05' W 164°20'0 1.4 15.6
2015-Jan-27 16:13N 33°05' W 164°21'0 1.4 15.6
2015-Jan-27 16:00N 33°05' W 164°21'1 0.4 15.5
2015-Jan-27 14:23N 33°06' W 164°22'1 8.5 15.5
2015-Jan-27 14:17N 33°06' W 164°23'0 0.0 15.6
2015-Jan-27 12:43N 33°06' W 164°23'215.2 15.6
2015-Jan-27 12:37N 33°06' W 164°25'0 0.0 15.6
2015-Jan-27 09:19N 33°06' W 164°24'0 0.3 15.6
2015-Jan-27 08:34N 33°06' W 164°25'1 0.8 15.6
2015-Jan-27 07:38N 33°06' W 164°26'1 0.3 15.6
2015-Jan-27 05:11N 33°06' W 164°26'1 0.7 15.5
2015-Jan-27 03:52N 33°06' W 164°27'0 0.6 15.5
2015-Jan-27 03:33N 33°06' W 164°27'2 1.2 15.5
2015-Jan-27 01:48N 33°07' W 164°30'0 0.0 15.5
2015-Jan-27 00:19N 33°07' W 164°30'0 0.0 15.5
2015-Jan-27 00:16N 33°07' W 164°30'2 0.6 15.5
2015-Jan-26 21:17N 33°07' W 164°32'1 1.2 15.5
2015-Jan-26 20:25N 33°07' W 164°33'2 0.7 15.5
2015-Jan-26 16:52N 33°06' W 164°36'1 5.3 15.5
2015-Jan-26 16:35N 33°05' W 164°37'0 0.0 15.5
2015-Jan-26 16:04N 33°05' W 164°37'0 0.0 15.5
2015-Jan-26 15:14N 33°05' W 164°37'1 0.6 15.5
2015-Jan-26 12:56N 33°04' W 164°38'215.7 15.5
2015-Jan-26 12:49N 33°03' W 164°39'0 0.0 15.5
2015-Jan-26 09:39N 33°03' W 164°39'0 0.0 15.4
2015-Jan-26 08:51N 33°03' W 164°39'0 0.1 15.5
2015-Jan-26 07:58N 33°03' W 164°39'1 0.3 15.5
2015-Jan-26 06:19N 33°03' W 164°40'0 0.2 15.5
2015-Jan-26 04:16N 33°03' W 164°40'0 1.1 15.4
2015-Jan-26 04:00N 33°03' W 164°41'0 0.0 15.4
2015-Jan-26 03:42N 33°03' W 164°41'1 0.6 15.4
2015-Jan-26 02:32N 33°02' W 164°41'0 0.0
2015-Jan-26 02:08N 33°02' W 164°41'115.3 15.3
2015-Jan-26 02:04N 33°02' W 164°43'0 0.0 15.3
2015-Jan-26 00:26N 33°02' W 164°43'1 0.4 15.3
2015-Jan-25 21:37N 33°01' W 164°44'0 0.2 15.3
2015-Jan-25 20:47N 33°01' W 164°44'1 0.4 15.2
2015-Jan-25 17:26N 33°00' W 164°45'1 1.4 15.1
2015-Jan-25 16:56N 32°60' W 164°45'0 0.0 15.1
2015-Jan-25 16:19N 32°60' W 164°45'114.9 15.1
2015-Jan-25 16:14N 32°59' W 164°47'1 1.7 15.1
2015-Jan-25 15:45N 32°59' W 164°46'0 0.2 15.1
2015-Jan-25 14:45N 32°59' W 164°46'1 7.2 15.1
2015-Jan-25 14:40N 32°59' W 164°47'0 0.0 15.1
2015-Jan-25 14:37N 32°59' W 164°47'0 0.0 15.1
2015-Jan-25 13:08N 32°59' W 164°47'1 3.8 15.1
2015-Jan-25 13:00N 32°59' W 164°46'0 0.0 15.1
2015-Jan-25 08:25N 32°59' W 164°46'0 0.5 15.1
2015-Jan-25 08:19N 32°59' W 164°46'0 0.1 15.1
2015-Jan-25 07:35N 32°59' W 164°47'0 0.3 15.1
2015-Jan-25 06:43N 32°59' W 164°47'0 0.7 15.1
2015-Jan-25 06:14N 32°59' W 164°46'1 0.9 15.1
2015-Jan-25 04:40N 33°01' W 164°47'0 3.2 15.2
2015-Jan-25 04:34N 33°00' W 164°47'0 0.5 15.2
2015-Jan-25 03:55N 33°01' W 164°47'1 5.7 15.3
2015-Jan-25 03:47N 33°01' W 164°47'0 0.0 15.3
2015-Jan-25 03:01N 33°01' W 164°47'0 0.2 15.3
2015-Jan-25 02:18N 33°01' W 164°48'114.4 15.4
2015-Jan-25 02:12N 33°02' W 164°49'0 0.0 15.4
2015-Jan-25 00:41N 33°02' W 164°49'0 0.0 15.4
2015-Jan-25 00:38N 33°02' W 164°49'1 0.2 15.4
2015-Jan-24 21:59N 33°02' W 164°49'0 0.1 15.5
2015-Jan-24 21:09N 33°02' W 164°49'1 0.6 15.5
2015-Jan-24 20:11N 33°03' W 164°50'0 0.0 15.5
2015-Jan-24 19:21N 33°03' W 164°50'0 0.0 15.5
2015-Jan-24 17:56N 33°03' W 164°50'0 0.8 15.5
2015-Jan-24 17:28N 33°03' W 164°50'0 0.0 15.5
2015-Jan-24 16:32N 33°03' W 164°50'0 5.8 15.6
2015-Jan-24 16:27N 33°04' W 164°50'0 3.6 15.6
2015-Jan-24 16:19N 33°03' W 164°50'0 0.9 15.6
2015-Jan-24 15:47N 33°04' W 164°50'0 0.0 15.6
2015-Jan-24 14:51N 33°04' W 164°50'1 0.6 15.7
2015-Jan-24 13:19N 33°05' W 164°50'322.7 15.7
2015-Jan-24 13:11N 33°07' W 164°52'0 0.0 15.7
2015-Jan-24 13:08N 33°07' W 164°52'0 0.0 15.7
2015-Jan-24 08:44N 33°07' W 164°52'0 3.2 15.8
2015-Jan-24 08:41N 33°07' W 164°52'1 1.4 15.8
2015-Jan-24 07:56N 33°08' W 164°53'1 1.2 15.8
2015-Jan-24 07:03N 33°08' W 164°54'3 1.3 15.8
2015-Jan-24 05:04N 33°10' W 164°56'0 0.0 15.8
2015-Jan-24 04:07N 33°10' W 164°56'0 1.5 15.8
2015-Jan-24 04:03N 33°10' W 164°56'113.1 15.8
2015-Jan-24 04:00N 33°10' W 164°57'2 2.9 15.8
2015-Jan-24 03:24N 33°11' W 164°59'0 0.0 15.7
2015-Jan-24 02:27N 33°11' W 164°59'1 9.2 15.7
2015-Jan-24 02:21N 33°11' W 164°60'0 0.0 15.7
2015-Jan-24 00:49N 33°11' W 164°60'1 8.9 15.7
2015-Jan-24 00:44N 33°12' W 165°00'0 0.0 15.7
2015-Jan-23 23:11N 33°12' W 165°00'216.6 15.5
2015-Jan-23 23:05N 33°12' W 165°02'0 0.0 15.5
2015-Jan-23 21:25N 33°12' W 165°02'0 0.0 15.2
2015-Jan-23 20:39N 33°12' W 165°02'0 0.3 15.3
2015-Jan-23 19:47N 33°12' W 165°02'1 0.4 15.4
2015-Jan-23 16:48N 33°13' W 165°02'0 2.3 15.6
2015-Jan-23 16:44N 33°13' W 165°03'1 9.6 15.6
2015-Jan-23 16:38N 33°14' W 165°03'0 0.0 15.6
2015-Jan-23 16:05N 33°14' W 165°03'0 0.0 15.6
2015-Jan-23 15:03N 33°14' W 165°03'120.8 15.6
2015-Jan-23 15:00N 33°15' W 165°03'0 0.0 15.6
2015-Jan-23 13:30N 33°15' W 165°03'436.7 15.7
2015-Jan-23 13:23N 33°18' W 165°06'0 0.0 15.7
2015-Jan-23 09:04N 33°18' W 165°06'120.4 15.8
2015-Jan-23 09:01N 33°18' W 165°07'0 0.2 15.7
2015-Jan-23 08:16N 33°18' W 165°07'1 1.0 15.8
2015-Jan-23 07:26N 33°18' W 165°08'215.6 15.8
2015-Jan-23 07:20N 33°19' W 165°10'0 0.0 15.8
2015-Jan-23 05:34N 33°19' W 165°10'2 1.8 15.9
2015-Jan-23 04:13N 33°19' W 165°13'0 0.0 16.0
2015-Jan-23 03:54N 33°19' W 165°13'0 0.0 16.0
2015-Jan-23 02:33N 33°19' W 165°13'1 0.8 16.0
2015-Jan-23 01:03N 33°19' W 165°14'0 1.0 16.0
2015-Jan-23 01:00N 33°19' W 165°14'3 1.6 16.0
2015-Jan-22 23:17N 33°18' W 165°17'0 0.0 16.1
2015-Jan-22 21:48N 33°18' W 165°17'2 2.0 16.0
2015-Jan-22 20:58N 33°18' W 165°19'0 0.0 16.1
2015-Jan-22 20:52N 33°18' W 165°19'0 0.0 16.1
2015-Jan-22 20:07N 33°18' W 165°19'2 0.7 16.1
2015-Jan-22 17:18N 33°18' W 165°22'0 0.0 16.2
2015-Jan-22 16:56N 33°18' W 165°22'212.9 16.2
2015-Jan-22 16:48N 33°17' W 165°24'0 0.0 16.2
2015-Jan-22 16:28N 33°17' W 165°24'0 0.0 16.2
2015-Jan-22 15:16N 33°17' W 165°24'0 0.0 16.2
2015-Jan-22 13:40N 33°17' W 165°24'869.1 16.0
2015-Jan-22 13:33N 33°20' W 165°33'0 0.0 15.9
2015-Jan-22 09:26N 33°20' W 165°33'0 0.0 15.9
2015-Jan-22 08:35N 33°20' W 165°33'0 0.0 15.9
2015-Jan-22 07:46N 33°20' W 165°33'224.8 15.9
2015-Jan-22 07:41N 33°21' W 165°35'0 0.0 15.9
2015-Jan-22 06:09N 33°21' W 165°35'2 0.9 16.0
2015-Jan-22 04:28N 33°21' W 165°37'1 5.5 16.0
2015-Jan-22 04:19N 33°21' W 165°38'1 0.7 16.0
2015-Jan-22 02:45N 33°21' W 165°39'4 2.6 16.0
2015-Jan-22 01:14N 33°18' W 165°42'0 0.0 16.3
2015-Jan-21 23:33N 33°18' W 165°42'0 0.0 16.5
2015-Jan-21 21:19N 33°18' W 165°42'0 4.0 16.5
2015-Jan-21 21:12N 33°17' W 165°42'0 0.0
2015-Jan-21 20:30N 33°17' W 165°42'1 0.5 16.5
2015-Jan-21 17:51N 33°17' W 165°44'0 0.4 16.5
2015-Jan-21 17:05N 33°17' W 165°44'1 1.3 16.5
2015-Jan-21 16:12N 33°17' W 165°46'0 0.5 16.5
2015-Jan-21 15:27N 33°17' W 165°46'6 3.5 16.5
2015-Jan-21 13:44N 33°17' W 165°53'0 0.0 16.4
2015-Jan-21 12:03N 33°17' W 165°53'6 0.8 16.5
2015-Jan-21 05:00N 33°14' W 165°59'3 6.7 16.4
2015-Jan-21 04:37N 33°12' W 166°01'0 0.0 16.4
2015-Jan-21 03:01N 33°12' W 166°01'0 2.4 16.4
2015-Jan-21 02:58N 33°12' W 166°01'3 1.9 16.4
2015-Jan-21 01:26N 33°09' W 166°03'1 0.7 16.3
2015-Jan-20 23:44N 33°09' W 166°04'0 0.0 16.3
2015-Jan-20 21:43N 33°09' W 166°04'0 0.4 16.2
2015-Jan-20 20:48N 33°08' W 166°04'4 1.2 16.1
2015-Jan-20 17:26N 33°07' W 166°09'1 3.4 16.3
2015-Jan-20 17:13N 33°07' W 166°10'0 0.0 16.3
2015-Jan-20 15:37N 33°07' W 166°10'1 0.7 16.2
2015-Jan-20 14:03N 33°07' W 166°11'2 1.2 15.9
2015-Jan-20 12:18N 33°07' W 166°13'445.8 15.7
2015-Jan-20 12:13N 33°07' W 166°18'0 0.0 15.7
2015-Jan-20 10:07N 33°07' W 166°18'0 0.0 15.8
2015-Jan-20 08:27N 33°07' W 166°18'0 2.3 15.9
2015-Jan-20 08:24N 33°07' W 166°18'0 0.4 15.9
2015-Jan-20 07:35N 33°08' W 166°18'1 1.1 15.9
2015-Jan-20 06:49N 33°08' W 166°19'2 1.8 15.9
2015-Jan-20 05:30N 33°08' W 166°22'0 1.0 15.9
2015-Jan-20 05:07N 33°08' W 166°22'2 0.9 15.9
2015-Jan-20 03:10N 33°07' W 166°24'1 0.6 15.9
2015-Jan-20 01:32N 33°07' W 166°25'2 1.3 15.9
2015-Jan-19 23:56N 33°07' W 166°27'0 0.1 15.9
2015-Jan-19 21:10N 33°06' W 166°28'2 1.2 15.9
2015-Jan-19 19:29N 33°08' W 166°29'0 0.2 15.9
2015-Jan-19 17:11N 33°07' W 166°30'0 0.0 15.9
2015-Jan-19 15:48N 33°07' W 166°30'1 8.3 15.9
2015-Jan-19 15:41N 33°08' W 166°31'1 6.4
2015-Jan-19 15:32N 33°07' W 166°30'1 0.8 15.9
2015-Jan-19 14:15N 33°08' W 166°31'211.2 15.9
2015-Jan-19 14:06N 33°08' W 166°33'0 0.0 15.9
2015-Jan-19 12:33N 33°08' W 166°33'2 0.6 15.9
2015-Jan-19 08:48N 33°08' W 166°35'0 0.0 15.8
2015-Jan-19 08:44N 33°08' W 166°35'1 1.5 15.8
2015-Jan-19 08:01N 33°07' W 166°36'0 0.0 15.8
2015-Jan-19 07:58N 33°07' W 166°36'0 0.5 15.8
2015-Jan-19 07:07N 33°07' W 166°37'0 5.6 15.7
2015-Jan-19 07:02N 33°07' W 166°37'0 0.3 15.7
2015-Jan-19 05:31N 33°06' W 166°38'0 0.0 15.7
2015-Jan-19 04:18N 33°06' W 166°38'0 0.6 15.6
2015-Jan-19 03:48N 33°06' W 166°37'1 1.7 15.6
2015-Jan-19 03:19N 33°06' W 166°38'0 0.0 15.6
2015-Jan-19 01:44N 33°06' W 166°38'1 0.4 15.4
2015-Jan-19 00:03N 33°06' W 166°39'2 0.7 15.4
2015-Jan-18 21:32N 33°05' W 166°40'1 0.4 15.5
2015-Jan-18 19:48N 33°04' W 166°41'1 0.4 15.7
2015-Jan-18 17:44N 33°04' W 166°41'0 0.2 15.7
2015-Jan-18 16:37N 33°03' W 166°42'0 1.6 15.7
2015-Jan-18 16:29N 33°03' W 166°42'0 0.9 15.7
2015-Jan-18 16:06N 33°03' W 166°41'010.5 15.7
2015-Jan-18 16:04N 33°03' W 166°42'1 0.4 15.7
2015-Jan-18 14:26N 33°04' W 166°42'1 9.6 15.7
2015-Jan-18 14:18N 33°05' W 166°43'0 0.0 15.7
2015-Jan-18 12:43N 33°05' W 166°43'323.4 15.8
2015-Jan-18 12:35N 33°07' W 166°46'0 0.0 15.8
2015-Jan-18 09:08N 33°07' W 166°46'0 4.2 15.8
2015-Jan-18 09:05N 33°07' W 166°46'1 1.6 15.8
2015-Jan-18 08:19N 33°07' W 166°48'0 0.0 15.8
2015-Jan-18 07:29N 33°07' W 166°48'321.7 15.9
2015-Jan-18 07:21N 33°06' W 166°51'2 1.9
2015-Jan-18 06:33N 33°06' W 166°49'2 0.9 16.0
2015-Jan-18 04:49N 33°06' W 166°51'2 3.1 16.0
2015-Jan-18 04:13N 33°05' W 166°53'0 0.1 16.0
2015-Jan-18 03:34N 33°05' W 166°53'015.1
2015-Jan-18 03:33N 33°05' W 166°53'3 1.6 16.2
2015-Jan-18 01:59N 33°04' W 166°56'213.3 16.5
2015-Jan-18 01:52N 33°03' W 166°57'0 0.0 7.5 16.5
2015-Jan-18 00:17N 33°03' W 166°57'0 0.0 16.7
2015-Jan-18 00:16N 33°03' W 166°57'2 0.9 16.7
2015-Jan-17 21:50N 33°01' W 166°59'0 0.0 16.8
2015-Jan-17 21:03N 33°01' W 166°59'2 2.3 16.8
2015-Jan-17 20:08N 33°00' W 167°01'0 0.0 16.8
2015-Jan-17 18:11N 33°00' W 167°01'   16.8

Dump ship's entire track history